sensor_id;sensor_type;location;lat;lon;timestamp;P1;durP1;ratioP1;P2;durP2;ratioP2
77733;SDS011;66902;41.720;44.796;2024-03-08T00:01:14;1.50;;;0.90;;
77733;SDS011;66902;41.720;44.796;2024-03-08T00:03:49;1.40;;;1.10;;
77733;SDS011;66902;41.720;44.796;2024-03-08T00:06:25;2.20;;;1.40;;
77733;SDS011;66902;41.720;44.796;2024-03-08T00:08:59;3.40;;;1.30;;
77733;SDS011;66902;41.720;44.796;2024-03-08T00:11:33;2.00;;;1.10;;
77733;SDS011;66902;41.720;44.796;2024-03-08T00:14:07;3.20;;;1.40;;
77733;SDS011;66902;41.720;44.796;2024-03-08T00:16:40;1.70;;;1.20;;
77733;SDS011;66902;41.720;44.796;2024-03-08T00:19:14;2.40;;;1.50;;
77733;SDS011;66902;41.720;44.796;2024-03-08T00:21:47;1.70;;;1.50;;
77733;SDS011;66902;41.720;44.796;2024-03-08T00:24:21;2.70;;;1.40;;
77733;SDS011;66902;41.720;44.796;2024-03-08T00:26:55;1.80;;;1.20;;
77733;SDS011;66902;41.720;44.796;2024-03-08T00:29:29;2.20;;;1.40;;
77733;SDS011;66902;41.720;44.796;2024-03-08T00:32:03;2.40;;;1.50;;
77733;SDS011;66902;41.720;44.796;2024-03-08T00:34:38;1.60;;;1.20;;
77733;SDS011;66902;41.720;44.796;2024-03-08T00:37:13;3.00;;;1.60;;
77733;SDS011;66902;41.720;44.796;2024-03-08T00:39:46;2.30;;;1.30;;
77733;SDS011;66902;41.720;44.796;2024-03-08T00:42:20;2.30;;;1.50;;
77733;SDS011;66902;41.720;44.796;2024-03-08T00:44:54;2.30;;;1.60;;
77733;SDS011;66902;41.720;44.796;2024-03-08T00:47:28;9.80;;;1.60;;
77733;SDS011;66902;41.720;44.796;2024-03-08T00:50:02;3.30;;;1.50;;
77733;SDS011;66902;41.720;44.796;2024-03-08T00:52:38;2.40;;;1.70;;
77733;SDS011;66902;41.720;44.796;2024-03-08T00:55:12;2.90;;;2.00;;
77733;SDS011;66902;41.720;44.796;2024-03-08T00:57:46;2.00;;;1.30;;
77733;SDS011;66902;41.720;44.796;2024-03-08T01:00:21;3.50;;;2.40;;
77733;SDS011;66902;41.720;44.796;2024-03-08T01:02:58;3.10;;;1.80;;
77733;SDS011;66902;41.720;44.796;2024-03-08T01:05:33;2.90;;;2.10;;
77733;SDS011;66902;41.720;44.796;2024-03-08T01:08:07;2.80;;;2.00;;
77733;SDS011;66902;41.720;44.796;2024-03-08T01:10:41;3.00;;;1.70;;
77733;SDS011;66902;41.720;44.796;2024-03-08T01:13:15;3.50;;;2.60;;
77733;SDS011;66902;41.720;44.796;2024-03-08T01:15:48;4.00;;;2.00;;
77733;SDS011;66902;41.720;44.796;2024-03-08T01:18:22;1.80;;;1.70;;
77733;SDS011;66902;41.720;44.796;2024-03-08T01:20:55;2.70;;;1.80;;
77733;SDS011;66902;41.720;44.796;2024-03-08T01:23:29;2.00;;;1.70;;
77733;SDS011;66902;41.720;44.796;2024-03-08T01:26:02;2.90;;;2.10;;
77733;SDS011;66902;41.720;44.796;2024-03-08T01:28:36;2.40;;;1.80;;
77733;SDS011;66902;41.720;44.796;2024-03-08T01:31:10;4.20;;;2.10;;
77733;SDS011;66902;41.720;44.796;2024-03-08T01:33:43;4.90;;;1.80;;
77733;SDS011;66902;41.720;44.796;2024-03-08T01:36:17;2.80;;;2.10;;
77733;SDS011;66902;41.720;44.796;2024-03-08T01:38:50;2.50;;;1.70;;
77733;SDS011;66902;41.720;44.796;2024-03-08T01:41:24;2.40;;;1.80;;
77733;SDS011;66902;41.720;44.796;2024-03-08T01:44:00;1.80;;;1.70;;
77733;SDS011;66902;41.720;44.796;2024-03-08T01:46:34;2.80;;;2.00;;
77733;SDS011;66902;41.720;44.796;2024-03-08T01:49:10;3.80;;;1.90;;
77733;SDS011;66902;41.720;44.796;2024-03-08T01:51:44;7.00;;;1.80;;
77733;SDS011;66902;41.720;44.796;2024-03-08T01:54:18;1.60;;;1.30;;
77733;SDS011;66902;41.720;44.796;2024-03-08T01:56:51;1.80;;;1.30;;
77733;SDS011;66902;41.720;44.796;2024-03-08T01:59:25;4.10;;;1.50;;
77733;SDS011;66902;41.720;44.796;2024-03-08T02:01:59;2.50;;;1.80;;
77733;SDS011;66902;41.720;44.796;2024-03-08T02:04:34;2.50;;;1.50;;
77733;SDS011;66902;41.720;44.796;2024-03-08T02:07:08;3.10;;;1.80;;
77733;SDS011;66902;41.720;44.796;2024-03-08T02:09:42;2.20;;;1.40;;
77733;SDS011;66902;41.720;44.796;2024-03-08T02:12:16;2.40;;;1.50;;
77733;SDS011;66902;41.720;44.796;2024-03-08T02:14:51;2.60;;;1.80;;
77733;SDS011;66902;41.720;44.796;2024-03-08T02:17:25;2.80;;;2.10;;
77733;SDS011;66902;41.720;44.796;2024-03-08T02:20:00;1.80;;;1.20;;
77733;SDS011;66902;41.720;44.796;2024-03-08T02:22:34;2.60;;;1.50;;
77733;SDS011;66902;41.720;44.796;2024-03-08T02:25:08;3.00;;;1.50;;
77733;SDS011;66902;41.720;44.796;2024-03-08T02:27:42;4.20;;;1.30;;
77733;SDS011;66902;41.720;44.796;2024-03-08T02:30:15;1.90;;;1.10;;
77733;SDS011;66902;41.720;44.796;2024-03-08T02:32:49;2.40;;;1.70;;
77733;SDS011;66902;41.720;44.796;2024-03-08T02:35:23;1.30;;;1.00;;
77733;SDS011;66902;41.720;44.796;2024-03-08T02:37:56;3.30;;;1.50;;
77733;SDS011;66902;41.720;44.796;2024-03-08T02:40:30;5.20;;;1.50;;
77733;SDS011;66902;41.720;44.796;2024-03-08T02:43:03;2.70;;;1.60;;
77733;SDS011;66902;41.720;44.796;2024-03-08T02:45:37;1.80;;;1.30;;
77733;SDS011;66902;41.720;44.796;2024-03-08T02:48:12;1.30;;;1.10;;
77733;SDS011;66902;41.720;44.796;2024-03-08T02:50:46;2.30;;;2.00;;
77733;SDS011;66902;41.720;44.796;2024-03-08T02:53:21;2.10;;;1.40;;
77733;SDS011;66902;41.720;44.796;2024-03-08T02:55:56;1.60;;;1.20;;
77733;SDS011;66902;41.720;44.796;2024-03-08T02:58:30;1.90;;;1.30;;
77733;SDS011;66902;41.720;44.796;2024-03-08T03:01:04;1.90;;;1.50;;
77733;SDS011;66902;41.720;44.796;2024-03-08T03:03:38;2.70;;;1.30;;
77733;SDS011;66902;41.720;44.796;2024-03-08T03:06:11;2.30;;;1.80;;
77733;SDS011;66902;41.720;44.796;2024-03-08T03:08:45;1.80;;;1.30;;
77733;SDS011;66902;41.720;44.796;2024-03-08T03:11:21;4.00;;;3.30;;
77733;SDS011;66902;41.720;44.796;2024-03-08T03:13:55;2.20;;;1.20;;
77733;SDS011;66902;41.720;44.796;2024-03-08T03:16:29;9.70;;;1.70;;
77733;SDS011;66902;41.720;44.796;2024-03-08T03:19:02;4.60;;;1.10;;
77733;SDS011;66902;41.720;44.796;2024-03-08T03:21:36;0.80;;;0.60;;
77733;SDS011;66902;41.720;44.796;2024-03-08T03:24:09;0.90;;;0.70;;
77733;SDS011;66902;41.720;44.796;2024-03-08T03:26:47;1.70;;;0.80;;
77733;SDS011;66902;41.720;44.796;2024-03-08T03:29:21;2.60;;;1.50;;
77733;SDS011;66902;41.720;44.796;2024-03-08T03:31:55;2.20;;;1.50;;
77733;SDS011;66902;41.720;44.796;2024-03-08T03:34:28;1.70;;;1.20;;
77733;SDS011;66902;41.720;44.796;2024-03-08T03:37:06;3.60;;;1.20;;
77733;SDS011;66902;41.720;44.796;2024-03-08T03:39:42;3.50;;;1.00;;
77733;SDS011;66902;41.720;44.796;2024-03-08T03:42:23;1.50;;;1.00;;
77733;SDS011;66902;41.720;44.796;2024-03-08T03:44:56;2.80;;;1.70;;
77733;SDS011;66902;41.720;44.796;2024-03-08T03:47:30;1.40;;;0.90;;
77733;SDS011;66902;41.720;44.796;2024-03-08T03:50:05;2.80;;;1.30;;
77733;SDS011;66902;41.720;44.796;2024-03-08T03:52:40;3.40;;;1.30;;
77733;SDS011;66902;41.720;44.796;2024-03-08T03:55:13;2.00;;;1.50;;
77733;SDS011;66902;41.720;44.796;2024-03-08T03:57:47;1.30;;;0.90;;
77733;SDS011;66902;41.720;44.796;2024-03-08T04:00:22;1.40;;;1.10;;
77733;SDS011;66902;41.720;44.796;2024-03-08T04:02:57;4.00;;;1.70;;
77733;SDS011;66902;41.720;44.796;2024-03-08T04:05:31;1.80;;;1.30;;
77733;SDS011;66902;41.720;44.796;2024-03-08T04:08:05;2.40;;;1.10;;
77733;SDS011;66902;41.720;44.796;2024-03-08T04:10:38;2.40;;;1.50;;
77733;SDS011;66902;41.720;44.796;2024-03-08T04:13:13;3.90;;;2.10;;
77733;SDS011;66902;41.720;44.796;2024-03-08T04:15:47;10.00;;;1.70;;
77733;SDS011;66902;41.720;44.796;2024-03-08T04:18:20;4.70;;;1.40;;
77733;SDS011;66902;41.720;44.796;2024-03-08T04:20:54;4.70;;;1.40;;
77733;SDS011;66902;41.720;44.796;2024-03-08T04:23:27;1.70;;;0.80;;
77733;SDS011;66902;41.720;44.796;2024-03-08T04:26:01;3.40;;;2.00;;
77733;SDS011;66902;41.720;44.796;2024-03-08T04:28:36;7.50;;;4.20;;
77733;SDS011;66902;41.720;44.796;2024-03-08T04:31:09;2.80;;;1.20;;
77733;SDS011;66902;41.720;44.796;2024-03-08T04:33:43;1.70;;;1.00;;
77733;SDS011;66902;41.720;44.796;2024-03-08T04:36:16;0.70;;;0.50;;
77733;SDS011;66902;41.720;44.796;2024-03-08T04:38:50;3.20;;;0.80;;
77733;SDS011;66902;41.720;44.796;2024-03-08T04:41:23;1.90;;;0.90;;
77733;SDS011;66902;41.720;44.796;2024-03-08T04:43:56;1.30;;;0.80;;
77733;SDS011;66902;41.720;44.796;2024-03-08T04:46:30;3.00;;;1.10;;
77733;SDS011;66902;41.720;44.796;2024-03-08T04:49:05;3.20;;;1.20;;
77733;SDS011;66902;41.720;44.796;2024-03-08T04:51:38;2.10;;;1.40;;
77733;SDS011;66902;41.720;44.796;2024-03-08T04:54:12;2.20;;;1.30;;
77733;SDS011;66902;41.720;44.796;2024-03-08T04:56:45;3.40;;;0.90;;
77733;SDS011;66902;41.720;44.796;2024-03-08T04:59:18;1.10;;;0.80;;
77733;SDS011;66902;41.720;44.796;2024-03-08T05:01:52;2.80;;;1.10;;
77733;SDS011;66902;41.720;44.796;2024-03-08T05:04:26;3.10;;;1.70;;
77733;SDS011;66902;41.720;44.796;2024-03-08T05:07:00;1.50;;;0.90;;
77733;SDS011;66902;41.720;44.796;2024-03-08T05:09:34;3.20;;;1.10;;
77733;SDS011;66902;41.720;44.796;2024-03-08T05:12:08;2.30;;;1.90;;
77733;SDS011;66902;41.720;44.796;2024-03-08T05:14:41;5.50;;;1.80;;
77733;SDS011;66902;41.720;44.796;2024-03-08T05:17:14;4.80;;;2.60;;
77733;SDS011;66902;41.720;44.796;2024-03-08T05:19:48;4.50;;;2.70;;
77733;SDS011;66902;41.720;44.796;2024-03-08T05:22:21;6.30;;;2.20;;
77733;SDS011;66902;41.720;44.796;2024-03-08T05:24:55;2.40;;;1.50;;
77733;SDS011;66902;41.720;44.796;2024-03-08T05:27:29;2.30;;;1.40;;
77733;SDS011;66902;41.720;44.796;2024-03-08T05:30:03;2.50;;;1.70;;
77733;SDS011;66902;41.720;44.796;2024-03-08T05:32:38;2.60;;;1.80;;
77733;SDS011;66902;41.720;44.796;2024-03-08T05:35:14;6.80;;;1.50;;
77733;SDS011;66902;41.720;44.796;2024-03-08T05:37:48;1.10;;;0.80;;
77733;SDS011;66902;41.720;44.796;2024-03-08T05:40:21;7.30;;;1.10;;
77733;SDS011;66902;41.720;44.796;2024-03-08T05:42:55;4.00;;;1.90;;
77733;SDS011;66902;41.720;44.796;2024-03-08T05:45:29;1.90;;;1.00;;
77733;SDS011;66902;41.720;44.796;2024-03-08T05:48:05;3.70;;;0.90;;
77733;SDS011;66902;41.720;44.796;2024-03-08T05:50:39;1.40;;;0.70;;
77733;SDS011;66902;41.720;44.796;2024-03-08T05:53:13;1.60;;;0.50;;
77733;SDS011;66902;41.720;44.796;2024-03-08T05:55:47;1.30;;;0.70;;
77733;SDS011;66902;41.720;44.796;2024-03-08T05:58:22;2.70;;;0.50;;
77733;SDS011;66902;41.720;44.796;2024-03-08T06:00:55;0.90;;;0.50;;
77733;SDS011;66902;41.720;44.796;2024-03-08T06:03:29;1.90;;;0.50;;
77733;SDS011;66902;41.720;44.796;2024-03-08T06:06:02;3.10;;;0.90;;
77733;SDS011;66902;41.720;44.796;2024-03-08T06:08:36;2.10;;;0.50;;
77733;SDS011;66902;41.720;44.796;2024-03-08T06:11:09;0.20;;;0.20;;
77733;SDS011;66902;41.720;44.796;2024-03-08T06:13:44;1.00;;;0.50;;
77733;SDS011;66902;41.720;44.796;2024-03-08T06:16:18;0.50;;;0.30;;
77733;SDS011;66902;41.720;44.796;2024-03-08T06:18:51;1.70;;;0.70;;
77733;SDS011;66902;41.720;44.796;2024-03-08T06:21:25;0.40;;;0.30;;
77733;SDS011;66902;41.720;44.796;2024-03-08T06:23:58;0.20;;;0.20;;
77733;SDS011;66902;41.720;44.796;2024-03-08T06:26:32;0.50;;;0.50;;
77733;SDS011;66902;41.720;44.796;2024-03-08T06:29:08;2.00;;;0.40;;
77733;SDS011;66902;41.720;44.796;2024-03-08T06:31:43;2.20;;;0.60;;
77733;SDS011;66902;41.720;44.796;2024-03-08T06:34:17;3.20;;;1.00;;
77733;SDS011;66902;41.720;44.796;2024-03-08T06:36:51;2.40;;;1.00;;
77733;SDS011;66902;41.720;44.796;2024-03-08T06:39:30;0.40;;;0.40;;
77733;SDS011;66902;41.720;44.796;2024-03-08T06:42:05;1.30;;;1.20;;
77733;SDS011;66902;41.720;44.796;2024-03-08T06:44:40;4.10;;;0.50;;
77733;SDS011;66902;41.720;44.796;2024-03-08T06:47:20;3.50;;;0.90;;
77733;SDS011;66902;41.720;44.796;2024-03-08T06:49:56;1.80;;;1.00;;
77733;SDS011;66902;41.720;44.796;2024-03-08T06:52:30;0.60;;;0.60;;
77733;SDS011;66902;41.720;44.796;2024-03-08T06:55:04;0.60;;;0.60;;
77733;SDS011;66902;41.720;44.796;2024-03-08T06:57:42;1.50;;;0.50;;
77733;SDS011;66902;41.720;44.796;2024-03-08T07:00:16;0.70;;;0.70;;
77733;SDS011;66902;41.720;44.796;2024-03-08T07:02:50;1.80;;;0.50;;
77733;SDS011;66902;41.720;44.796;2024-03-08T07:05:24;3.00;;;0.90;;
77733;SDS011;66902;41.720;44.796;2024-03-08T07:08:00;3.30;;;1.10;;
77733;SDS011;66902;41.720;44.796;2024-03-08T07:10:36;0.60;;;0.60;;
77733;SDS011;66902;41.720;44.796;2024-03-08T07:13:11;0.60;;;0.60;;
77733;SDS011;66902;41.720;44.796;2024-03-08T07:15:45;0.80;;;0.70;;
77733;SDS011;66902;41.720;44.796;2024-03-08T07:20:52;1.00;;;0.80;;
77733;SDS011;66902;41.720;44.796;2024-03-08T07:26:17;4.10;;;1.00;;
77733;SDS011;66902;41.720;44.796;2024-03-08T07:28:51;1.50;;;0.90;;
77733;SDS011;66902;41.720;44.796;2024-03-08T07:31:24;1.80;;;0.60;;
77733;SDS011;66902;41.720;44.796;2024-03-08T07:34:08;1.10;;;1.00;;
77733;SDS011;66902;41.720;44.796;2024-03-08T07:36:42;1.70;;;1.20;;
77733;SDS011;66902;41.720;44.796;2024-03-08T07:39:15;4.50;;;1.50;;
77733;SDS011;66902;41.720;44.796;2024-03-08T07:41:49;2.50;;;1.10;;
77733;SDS011;66902;41.720;44.796;2024-03-08T07:44:23;2.30;;;0.90;;
77733;SDS011;66902;41.720;44.796;2024-03-08T07:46:57;3.10;;;0.80;;
77733;SDS011;66902;41.720;44.796;2024-03-08T07:49:30;4.30;;;0.90;;
77733;SDS011;66902;41.720;44.796;2024-03-08T07:52:06;0.60;;;0.60;;
77733;SDS011;66902;41.720;44.796;2024-03-08T07:54:45;2.00;;;1.00;;
77733;SDS011;66902;41.720;44.796;2024-03-08T07:57:19;1.30;;;0.80;;
77733;SDS011;66902;41.720;44.796;2024-03-08T07:59:53;0.60;;;0.50;;
77733;SDS011;66902;41.720;44.796;2024-03-08T08:02:27;0.80;;;0.60;;
77733;SDS011;66902;41.720;44.796;2024-03-08T08:05:06;4.20;;;0.80;;
77733;SDS011;66902;41.720;44.796;2024-03-08T08:07:43;1.70;;;0.70;;
77733;SDS011;66902;41.720;44.796;2024-03-08T08:10:21;0.40;;;0.30;;
77733;SDS011;66902;41.720;44.796;2024-03-08T08:12:59;1.90;;;0.70;;
77733;SDS011;66902;41.720;44.796;2024-03-08T08:15:35;3.00;;;0.50;;
77733;SDS011;66902;41.720;44.796;2024-03-08T08:18:09;1.60;;;0.60;;
77733;SDS011;66902;41.720;44.796;2024-03-08T08:20:44;3.10;;;0.80;;
77733;SDS011;66902;41.720;44.796;2024-03-08T08:23:17;1.80;;;0.60;;
77733;SDS011;66902;41.720;44.796;2024-03-08T08:25:50;2.30;;;1.10;;
77733;SDS011;66902;41.720;44.796;2024-03-08T08:28:24;1.30;;;0.50;;
77733;SDS011;66902;41.720;44.796;2024-03-08T08:30:57;2.80;;;0.50;;
77733;SDS011;66902;41.720;44.796;2024-03-08T08:33:32;5.50;;;1.10;;
77733;SDS011;66902;41.720;44.796;2024-03-08T08:36:07;3.10;;;0.40;;
77733;SDS011;66902;41.720;44.796;2024-03-08T08:38:42;1.00;;;0.30;;
77733;SDS011;66902;41.720;44.796;2024-03-08T08:41:16;2.00;;;0.30;;
77733;SDS011;66902;41.720;44.796;2024-03-08T08:43:51;1.30;;;0.50;;
77733;SDS011;66902;41.720;44.796;2024-03-08T08:46:42;0.60;;;0.50;;
77733;SDS011;66902;41.720;44.796;2024-03-08T08:49:16;5.20;;;0.70;;
77733;SDS011;66902;41.720;44.796;2024-03-08T08:51:50;3.70;;;0.50;;
77733;SDS011;66902;41.720;44.796;2024-03-08T08:54:28;2.00;;;0.80;;
77733;SDS011;66902;41.720;44.796;2024-03-08T08:57:01;2.30;;;0.40;;
77733;SDS011;66902;41.720;44.796;2024-03-08T08:59:38;8.60;;;1.50;;
77733;SDS011;66902;41.720;44.796;2024-03-08T09:02:11;1.80;;;0.50;;
77733;SDS011;66902;41.720;44.796;2024-03-08T09:04:47;1.80;;;0.90;;
77733;SDS011;66902;41.720;44.796;2024-03-08T09:07:22;3.10;;;0.70;;
77733;SDS011;66902;41.720;44.796;2024-03-08T09:09:56;1.60;;;0.60;;
77733;SDS011;66902;41.720;44.796;2024-03-08T09:12:44;1.20;;;0.50;;
77733;SDS011;66902;41.720;44.796;2024-03-08T09:15:18;2.20;;;0.60;;
77733;SDS011;66902;41.720;44.796;2024-03-08T09:17:53;3.30;;;0.50;;
77733;SDS011;66902;41.720;44.796;2024-03-08T09:20:26;1.10;;;0.40;;
77733;SDS011;66902;41.720;44.796;2024-03-08T09:23:01;0.60;;;0.40;;
77733;SDS011;66902;41.720;44.796;2024-03-08T09:25:35;2.70;;;0.40;;
77733;SDS011;66902;41.720;44.796;2024-03-08T09:28:08;5.20;;;0.80;;
77733;SDS011;66902;41.720;44.796;2024-03-08T09:30:43;1.30;;;0.60;;
77733;SDS011;66902;41.720;44.796;2024-03-08T09:33:28;1.10;;;0.70;;
77733;SDS011;66902;41.720;44.796;2024-03-08T09:36:05;2.60;;;0.60;;
77733;SDS011;66902;41.720;44.796;2024-03-08T09:38:39;0.80;;;0.60;;
77733;SDS011;66902;41.720;44.796;2024-03-08T09:41:13;3.20;;;1.30;;
77733;SDS011;66902;41.720;44.796;2024-03-08T09:43:47;0.90;;;0.70;;
77733;SDS011;66902;41.720;44.796;2024-03-08T09:46:21;4.20;;;0.70;;
77733;SDS011;66902;41.720;44.796;2024-03-08T09:48:55;2.00;;;0.60;;
77733;SDS011;66902;41.720;44.796;2024-03-08T09:51:31;1.00;;;0.60;;
77733;SDS011;66902;41.720;44.796;2024-03-08T09:54:06;2.50;;;0.90;;
77733;SDS011;66902;41.720;44.796;2024-03-08T09:56:49;3.60;;;0.50;;
77733;SDS011;66902;41.720;44.796;2024-03-08T09:59:24;0.90;;;0.40;;
77733;SDS011;66902;41.720;44.796;2024-03-08T10:02:14;4.80;;;0.90;;
77733;SDS011;66902;41.720;44.796;2024-03-08T10:04:48;1.30;;;0.80;;
77733;SDS011;66902;41.720;44.796;2024-03-08T10:07:23;6.00;;;1.40;;
77733;SDS011;66902;41.720;44.796;2024-03-08T10:09:57;3.40;;;1.50;;
77733;SDS011;66902;41.720;44.796;2024-03-08T10:12:30;7.00;;;1.00;;
77733;SDS011;66902;41.720;44.796;2024-03-08T10:15:07;7.80;;;1.40;;
77733;SDS011;66902;41.720;44.796;2024-03-08T10:17:42;3.40;;;1.00;;
77733;SDS011;66902;41.720;44.796;2024-03-08T10:20:16;4.30;;;1.30;;
77733;SDS011;66902;41.720;44.796;2024-03-08T10:22:50;6.90;;;1.30;;
77733;SDS011;66902;41.720;44.796;2024-03-08T10:25:38;3.80;;;0.80;;
77733;SDS011;66902;41.720;44.796;2024-03-08T10:28:12;2.90;;;1.20;;
77733;SDS011;66902;41.720;44.796;2024-03-08T10:30:48;3.70;;;1.30;;
77733;SDS011;66902;41.720;44.796;2024-03-08T10:33:21;1.40;;;1.10;;
77733;SDS011;66902;41.720;44.796;2024-03-08T10:35:56;1.90;;;1.40;;
77733;SDS011;66902;41.720;44.796;2024-03-08T10:38:29;2.60;;;1.90;;
77733;SDS011;66902;41.720;44.796;2024-03-08T10:41:04;4.70;;;1.70;;
77733;SDS011;66902;41.720;44.796;2024-03-08T10:43:43;2.90;;;2.00;;
77733;SDS011;66902;41.720;44.796;2024-03-08T10:46:29;4.20;;;1.30;;
77733;SDS011;66902;41.720;44.796;2024-03-08T10:49:07;2.20;;;1.50;;
77733;SDS011;66902;41.720;44.796;2024-03-08T10:51:44;5.20;;;2.80;;
77733;SDS011;66902;41.720;44.796;2024-03-08T10:54:18;9.00;;;2.00;;
77733;SDS011;66902;41.720;44.796;2024-03-08T10:56:52;5.80;;;1.10;;
77733;SDS011;66902;41.720;44.796;2024-03-08T10:59:26;5.50;;;2.40;;
77733;SDS011;66902;41.720;44.796;2024-03-08T11:02:01;2.00;;;1.40;;
77733;SDS011;66902;41.720;44.796;2024-03-08T11:04:36;5.80;;;1.80;;
77733;SDS011;66902;41.720;44.796;2024-03-08T11:07:10;3.10;;;2.10;;
77733;SDS011;66902;41.720;44.796;2024-03-08T11:09:50;10.70;;;2.40;;
77733;SDS011;66902;41.720;44.796;2024-03-08T11:12:24;7.10;;;2.00;;
77733;SDS011;66902;41.720;44.796;2024-03-08T11:15:02;7.60;;;1.70;;
77733;SDS011;66902;41.720;44.796;2024-03-08T11:17:44;2.40;;;1.30;;
77733;SDS011;66902;41.720;44.796;2024-03-08T11:20:19;7.90;;;1.60;;
77733;SDS011;66902;41.720;44.796;2024-03-08T11:22:55;5.90;;;1.80;;
77733;SDS011;66902;41.720;44.796;2024-03-08T11:25:35;7.00;;;2.40;;
77733;SDS011;66902;41.720;44.796;2024-03-08T11:28:12;4.20;;;1.90;;
77733;SDS011;66902;41.720;44.796;2024-03-08T11:33:57;7.80;;;2.50;;
77733;SDS011;66902;41.720;44.796;2024-03-08T11:36:30;10.50;;;3.50;;
77733;SDS011;66902;41.720;44.796;2024-03-08T11:39:08;10.10;;;2.70;;
77733;SDS011;66902;41.720;44.796;2024-03-08T11:41:44;7.20;;;2.20;;
77733;SDS011;66902;41.720;44.796;2024-03-08T11:44:18;5.10;;;2.00;;
77733;SDS011;66902;41.720;44.796;2024-03-08T11:46:52;4.70;;;2.10;;
77733;SDS011;66902;41.720;44.796;2024-03-08T11:49:25;4.00;;;1.70;;
77733;SDS011;66902;41.720;44.796;2024-03-08T11:51:59;5.30;;;2.00;;
77733;SDS011;66902;41.720;44.796;2024-03-08T11:54:32;4.00;;;2.10;;
77733;SDS011;66902;41.720;44.796;2024-03-08T11:57:06;8.90;;;1.70;;
77733;SDS011;66902;41.720;44.796;2024-03-08T11:59:40;3.90;;;2.30;;
77733;SDS011;66902;41.720;44.796;2024-03-08T12:02:18;7.20;;;2.10;;
77733;SDS011;66902;41.720;44.796;2024-03-08T12:04:57;7.60;;;2.50;;
77733;SDS011;66902;41.720;44.796;2024-03-08T12:07:33;4.10;;;3.00;;
77733;SDS011;66902;41.720;44.796;2024-03-08T12:12:58;4.00;;;3.00;;
77733;SDS011;66902;41.720;44.796;2024-03-08T12:15:34;7.90;;;3.00;;
77733;SDS011;66902;41.720;44.796;2024-03-08T12:18:08;5.20;;;2.10;;
77733;SDS011;66902;41.720;44.796;2024-03-08T12:20:43;6.10;;;2.70;;
77733;SDS011;66902;41.720;44.796;2024-03-08T12:23:20;4.50;;;2.20;;
77733;SDS011;66902;41.720;44.796;2024-03-08T12:25:53;7.50;;;2.80;;
77733;SDS011;66902;41.720;44.796;2024-03-08T12:28:27;3.50;;;2.50;;
77733;SDS011;66902;41.720;44.796;2024-03-08T12:31:01;4.30;;;2.60;;
77733;SDS011;66902;41.720;44.796;2024-03-08T12:33:36;5.90;;;3.30;;
77733;SDS011;66902;41.720;44.796;2024-03-08T12:36:10;8.00;;;4.60;;
77733;SDS011;66902;41.720;44.796;2024-03-08T12:38:47;2.60;;;1.70;;
77733;SDS011;66902;41.720;44.796;2024-03-08T12:41:22;6.10;;;3.70;;
77733;SDS011;66902;41.720;44.796;2024-03-08T12:43:57;4.20;;;2.10;;
77733;SDS011;66902;41.720;44.796;2024-03-08T12:46:31;3.90;;;1.90;;
77733;SDS011;66902;41.720;44.796;2024-03-08T12:49:05;6.80;;;2.40;;
77733;SDS011;66902;41.720;44.796;2024-03-08T12:54:14;4.80;;;2.60;;
77733;SDS011;66902;41.720;44.796;2024-03-08T12:56:48;2.40;;;1.90;;
77733;SDS011;66902;41.720;44.796;2024-03-08T12:59:24;4.20;;;2.00;;
77733;SDS011;66902;41.720;44.796;2024-03-08T13:01:57;3.10;;;1.80;;
77733;SDS011;66902;41.720;44.796;2024-03-08T13:04:31;3.70;;;2.60;;
77733;SDS011;66902;41.720;44.796;2024-03-08T13:07:06;4.70;;;2.40;;
77733;SDS011;66902;41.720;44.796;2024-03-08T13:09:39;2.30;;;1.70;;
77733;SDS011;66902;41.720;44.796;2024-03-08T13:12:14;4.70;;;2.70;;
77733;SDS011;66902;41.720;44.796;2024-03-08T13:14:48;6.30;;;2.50;;
77733;SDS011;66902;41.720;44.796;2024-03-08T13:17:22;6.10;;;2.10;;
77733;SDS011;66902;41.720;44.796;2024-03-08T13:19:57;3.80;;;1.80;;
77733;SDS011;66902;41.720;44.796;2024-03-08T13:22:31;2.70;;;2.00;;
77733;SDS011;66902;41.720;44.796;2024-03-08T13:25:06;4.40;;;2.40;;
77733;SDS011;66902;41.720;44.796;2024-03-08T13:27:43;4.80;;;2.80;;
77733;SDS011;66902;41.720;44.796;2024-03-08T13:30:17;10.60;;;2.60;;
77733;SDS011;66902;41.720;44.796;2024-03-08T13:32:54;7.80;;;3.00;;
77733;SDS011;66902;41.720;44.796;2024-03-08T13:35:27;4.30;;;2.10;;
77733;SDS011;66902;41.720;44.796;2024-03-08T13:38:00;10.30;;;3.10;;
77733;SDS011;66902;41.720;44.796;2024-03-08T13:40:35;5.20;;;3.50;;
77733;SDS011;66902;41.720;44.796;2024-03-08T13:43:10;7.00;;;3.00;;
77733;SDS011;66902;41.720;44.796;2024-03-08T13:45:44;4.70;;;2.50;;
77733;SDS011;66902;41.720;44.796;2024-03-08T13:48:19;6.30;;;3.30;;
77733;SDS011;66902;41.720;44.796;2024-03-08T13:50:53;6.00;;;2.30;;
77733;SDS011;66902;41.720;44.796;2024-03-08T13:53:27;7.90;;;2.60;;
77733;SDS011;66902;41.720;44.796;2024-03-08T13:56:01;2.90;;;2.20;;
77733;SDS011;66902;41.720;44.796;2024-03-08T13:58:35;5.10;;;2.40;;
77733;SDS011;66902;41.720;44.796;2024-03-08T14:01:10;5.00;;;2.50;;
77733;SDS011;66902;41.720;44.796;2024-03-08T14:03:44;9.10;;;3.80;;
77733;SDS011;66902;41.720;44.796;2024-03-08T14:06:17;3.60;;;2.50;;
77733;SDS011;66902;41.720;44.796;2024-03-08T14:08:59;7.00;;;3.50;;
77733;SDS011;66902;41.720;44.796;2024-03-08T14:11:32;6.60;;;3.70;;
77733;SDS011;66902;41.720;44.796;2024-03-08T14:14:06;8.20;;;4.20;;
77733;SDS011;66902;41.720;44.796;2024-03-08T14:16:39;6.40;;;4.00;;
77733;SDS011;66902;41.720;44.796;2024-03-08T14:19:13;11.30;;;4.00;;
77733;SDS011;66902;41.720;44.796;2024-03-08T14:21:47;5.40;;;3.60;;
77733;SDS011;66902;41.720;44.796;2024-03-08T14:24:23;5.70;;;3.90;;
77733;SDS011;66902;41.720;44.796;2024-03-08T14:26:56;6.10;;;4.10;;
77733;SDS011;66902;41.720;44.796;2024-03-08T14:29:30;8.30;;;4.60;;
77733;SDS011;66902;41.720;44.796;2024-03-08T14:32:04;7.30;;;4.70;;
77733;SDS011;66902;41.720;44.796;2024-03-08T14:34:38;6.80;;;3.70;;
77733;SDS011;66902;41.720;44.796;2024-03-08T14:37:13;8.60;;;4.50;;
77733;SDS011;66902;41.720;44.796;2024-03-08T14:39:48;8.70;;;4.00;;
77733;SDS011;66902;41.720;44.796;2024-03-08T14:42:22;5.30;;;3.50;;
77733;SDS011;66902;41.720;44.796;2024-03-08T14:44:56;4.00;;;3.30;;
77733;SDS011;66902;41.720;44.796;2024-03-08T14:47:30;7.00;;;3.80;;
77733;SDS011;66902;41.720;44.796;2024-03-08T14:50:05;8.70;;;4.00;;
77733;SDS011;66902;41.720;44.796;2024-03-08T14:52:41;7.00;;;4.00;;
77733;SDS011;66902;41.720;44.796;2024-03-08T14:55:17;8.00;;;4.60;;
77733;SDS011;66902;41.720;44.796;2024-03-08T14:57:52;8.70;;;4.50;;
77733;SDS011;66902;41.720;44.796;2024-03-08T15:00:25;5.10;;;3.20;;
77733;SDS011;66902;41.720;44.796;2024-03-08T15:03:04;4.90;;;4.10;;
77733;SDS011;66902;41.720;44.796;2024-03-08T15:05:43;5.80;;;4.00;;
77733;SDS011;66902;41.720;44.796;2024-03-08T15:08:18;5.30;;;4.80;;
77733;SDS011;66902;41.720;44.796;2024-03-08T15:10:54;6.30;;;4.50;;
77733;SDS011;66902;41.720;44.796;2024-03-08T15:13:29;10.30;;;5.00;;
77733;SDS011;66902;41.720;44.796;2024-03-08T15:16:09;10.30;;;4.50;;
77733;SDS011;66902;41.720;44.796;2024-03-08T15:18:46;6.30;;;4.40;;
77733;SDS011;66902;41.720;44.796;2024-03-08T15:21:22;8.60;;;4.10;;
77733;SDS011;66902;41.720;44.796;2024-03-08T15:23:55;4.60;;;3.90;;
77733;SDS011;66902;41.720;44.796;2024-03-08T15:26:30;8.00;;;4.30;;
77733;SDS011;66902;41.720;44.796;2024-03-08T15:29:03;6.90;;;4.70;;
77733;SDS011;66902;41.720;44.796;2024-03-08T15:31:38;6.00;;;4.10;;